sensor_id;sensor_type;location;lat;lon;timestamp;temperature;humidity
19180;DHT22;9722;48.754;8.868;2022-07-29T00:00:15;19.70;81.20
19180;DHT22;9722;48.754;8.868;2022-07-29T00:03:35;19.70;81.30
19180;DHT22;9722;48.754;8.868;2022-07-29T00:06:56;19.70;81.80
19180;DHT22;9722;48.754;8.868;2022-07-29T00:10:16;19.70;82.00
19180;DHT22;9722;48.754;8.868;2022-07-29T00:13:37;19.70;82.30
19180;DHT22;9722;48.754;8.868;2022-07-29T00:16:58;19.60;82.40
19180;DHT22;9722;48.754;8.868;2022-07-29T00:20:18;19.60;82.50
19180;DHT22;9722;48.754;8.868;2022-07-29T00:23:39;19.60;82.80
19180;DHT22;9722;48.754;8.868;2022-07-29T00:26:59;19.60;82.80
19180;DHT22;9722;48.754;8.868;2022-07-29T00:30:20;19.60;82.80
19180;DHT22;9722;48.754;8.868;2022-07-29T00:33:41;19.70;82.90
19180;DHT22;9722;48.754;8.868;2022-07-29T00:37:01;19.60;82.80
19180;DHT22;9722;48.754;8.868;2022-07-29T00:40:22;19.70;83.30
19180;DHT22;9722;48.754;8.868;2022-07-29T00:43:43;19.70;83.60
19180;DHT22;9722;48.754;8.868;2022-07-29T00:47:04;19.60;83.60
19180;DHT22;9722;48.754;8.868;2022-07-29T00:50:26;19.60;84.00
19180;DHT22;9722;48.754;8.868;2022-07-29T00:53:46;19.60;84.50
19180;DHT22;9722;48.754;8.868;2022-07-29T00:57:11;19.50;84.70
19180;DHT22;9722;48.754;8.868;2022-07-29T01:00:32;19.40;85.10
19180;DHT22;9722;48.754;8.868;2022-07-29T01:03:52;19.30;85.60
19180;DHT22;9722;48.754;8.868;2022-07-29T01:07:13;19.30;86.40
19180;DHT22;9722;48.754;8.868;2022-07-29T01:10:37;19.20;87.00
19180;DHT22;9722;48.754;8.868;2022-07-29T01:13:58;19.20;87.50
19180;DHT22;9722;48.754;8.868;2022-07-29T01:18:11;19.10;87.70
19180;DHT22;9722;48.754;8.868;2022-07-29T01:29:16;19.00;88.50
19180;DHT22;9722;48.754;8.868;2022-07-29T01:32:39;19.00;89.20
19180;DHT22;9722;48.754;8.868;2022-07-29T01:36:10;19.00;89.40
19180;DHT22;9722;48.754;8.868;2022-07-29T01:39:35;19.00;89.50
19180;DHT22;9722;48.754;8.868;2022-07-29T01:42:58;19.10;89.30
19180;DHT22;9722;48.754;8.868;2022-07-29T01:46:25;19.20;89.40
19180;DHT22;9722;48.754;8.868;2022-07-29T01:49:50;19.30;89.30
19180;DHT22;9722;48.754;8.868;2022-07-29T01:53:12;19.40;89.00
19180;DHT22;9722;48.754;8.868;2022-07-29T01:56:35;19.40;88.80
19180;DHT22;9722;48.754;8.868;2022-07-29T01:59:59;19.50;88.60
19180;DHT22;9722;48.754;8.868;2022-07-29T02:03:21;19.60;88.60
19180;DHT22;9722;48.754;8.868;2022-07-29T02:06:43;19.60;88.30
19180;DHT22;9722;48.754;8.868;2022-07-29T02:10:06;19.70;88.10
19180;DHT22;9722;48.754;8.868;2022-07-29T02:13:27;19.80;87.90
19180;DHT22;9722;48.754;8.868;2022-07-29T02:16:52;19.80;87.70
19180;DHT22;9722;48.754;8.868;2022-07-29T02:20:14;19.90;87.80
19180;DHT22;9722;48.754;8.868;2022-07-29T02:23:37;19.90;87.60
19180;DHT22;9722;48.754;8.868;2022-07-29T02:27:00;19.90;87.70
19180;DHT22;9722;48.754;8.868;2022-07-29T02:30:22;19.90;88.20
19180;DHT22;9722;48.754;8.868;2022-07-29T02:33:45;19.90;88.20
19180;DHT22;9722;48.754;8.868;2022-07-29T02:37:10;19.90;88.30
19180;DHT22;9722;48.754;8.868;2022-07-29T02:40:31;19.80;88.40
19180;DHT22;9722;48.754;8.868;2022-07-29T02:43:55;19.80;88.50
19180;DHT22;9722;48.754;8.868;2022-07-29T02:47:27;19.80;88.60
19180;DHT22;9722;48.754;8.868;2022-07-29T02:50:54;19.80;88.80
19180;DHT22;9722;48.754;8.868;2022-07-29T02:54:26;19.60;89.00
19180;DHT22;9722;48.754;8.868;2022-07-29T02:57:51;19.50;89.40
19180;DHT22;9722;48.754;8.868;2022-07-29T03:01:16;19.30;89.90
19180;DHT22;9722;48.754;8.868;2022-07-29T03:04:40;19.20;90.00
19180;DHT22;9722;48.754;8.868;2022-07-29T03:08:04;19.10;90.40
19180;DHT22;9722;48.754;8.868;2022-07-29T03:11:25;18.90;90.50
19180;DHT22;9722;48.754;8.868;2022-07-29T03:14:47;18.80;90.80
19180;DHT22;9722;48.754;8.868;2022-07-29T03:18:08;18.70;91.10
19180;DHT22;9722;48.754;8.868;2022-07-29T03:21:29;18.60;91.30
19180;DHT22;9722;48.754;8.868;2022-07-29T03:24:49;18.60;91.60
19180;DHT22;9722;48.754;8.868;2022-07-29T03:28:10;18.50;91.80
19180;DHT22;9722;48.754;8.868;2022-07-29T03:31:30;18.40;92.00
19180;DHT22;9722;48.754;8.868;2022-07-29T03:34:51;18.30;92.20
19180;DHT22;9722;48.754;8.868;2022-07-29T03:38:11;18.30;92.40
19180;DHT22;9722;48.754;8.868;2022-07-29T03:41:33;18.20;92.60
19180;DHT22;9722;48.754;8.868;2022-07-29T03:44:55;18.10;92.80
19180;DHT22;9722;48.754;8.868;2022-07-29T03:48:20;18.10;93.00
19180;DHT22;9722;48.754;8.868;2022-07-29T03:51:42;18.00;93.20
19180;DHT22;9722;48.754;8.868;2022-07-29T03:55:04;18.00;93.40
19180;DHT22;9722;48.754;8.868;2022-07-29T03:58:27;18.00;93.60
19180;DHT22;9722;48.754;8.868;2022-07-29T04:01:48;18.00;93.80
19180;DHT22;9722;48.754;8.868;2022-07-29T04:05:12;17.90;93.90
19180;DHT22;9722;48.754;8.868;2022-07-29T04:08:34;17.90;94.00
19180;DHT22;9722;48.754;8.868;2022-07-29T04:11:54;17.90;94.20
19180;DHT22;9722;48.754;8.868;2022-07-29T04:15:15;17.90;94.30
19180;DHT22;9722;48.754;8.868;2022-07-29T04:18:35;17.90;94.50
19180;DHT22;9722;48.754;8.868;2022-07-29T04:21:57;17.90;94.60
19180;DHT22;9722;48.754;8.868;2022-07-29T04:25:17;17.90;94.60
19180;DHT22;9722;48.754;8.868;2022-07-29T04:28:38;17.90;94.60
19180;DHT22;9722;48.754;8.868;2022-07-29T04:32:00;18.00;94.60
19180;DHT22;9722;48.754;8.868;2022-07-29T04:35:20;17.90;94.70
19180;DHT22;9722;48.754;8.868;2022-07-29T04:38:41;17.90;94.90
19180;DHT22;9722;48.754;8.868;2022-07-29T04:42:01;17.90;95.00
19180;DHT22;9722;48.754;8.868;2022-07-29T04:45:22;18.00;95.10
19180;DHT22;9722;48.754;8.868;2022-07-29T04:48:45;18.00;95.20
19180;DHT22;9722;48.754;8.868;2022-07-29T04:52:06;18.00;95.20
19180;DHT22;9722;48.754;8.868;2022-07-29T04:55:27;18.10;95.10
19180;DHT22;9722;48.754;8.868;2022-07-29T04:58:47;18.20;95.10
19180;DHT22;9722;48.754;8.868;2022-07-29T05:02:08;18.20;95.00
19180;DHT22;9722;48.754;8.868;2022-07-29T05:05:28;18.20;95.10
19180;DHT22;9722;48.754;8.868;2022-07-29T05:08:49;18.30;95.10
19180;DHT22;9722;48.754;8.868;2022-07-29T05:12:09;18.40;95.10
19180;DHT22;9722;48.754;8.868;2022-07-29T05:15:30;18.60;95.00
19180;DHT22;9722;48.754;8.868;2022-07-29T05:18:50;18.90;94.50
19180;DHT22;9722;48.754;8.868;2022-07-29T05:22:11;19.20;93.90
19180;DHT22;9722;48.754;8.868;2022-07-29T05:25:31;19.60;93.30
19180;DHT22;9722;48.754;8.868;2022-07-29T05:28:52;19.90;92.50
19180;DHT22;9722;48.754;8.868;2022-07-29T05:32:14;20.20;91.80
19180;DHT22;9722;48.754;8.868;2022-07-29T05:35:34;20.50;91.00
19180;DHT22;9722;48.754;8.868;2022-07-29T05:38:57;20.80;90.40
19180;DHT22;9722;48.754;8.868;2022-07-29T05:42:17;21.00;89.80
19180;DHT22;9722;48.754;8.868;2022-07-29T05:45:39;21.10;88.80
19180;DHT22;9722;48.754;8.868;2022-07-29T05:48:59;21.30;87.80
19180;DHT22;9722;48.754;8.868;2022-07-29T05:52:20;21.60;86.60
19180;DHT22;9722;48.754;8.868;2022-07-29T05:55:41;22.00;85.10
19180;DHT22;9722;48.754;8.868;2022-07-29T05:59:02;22.10;83.70
19180;DHT22;9722;48.754;8.868;2022-07-29T06:02:22;22.30;82.60
19180;DHT22;9722;48.754;8.868;2022-07-29T06:05:43;22.40;81.80
19180;DHT22;9722;48.754;8.868;2022-07-29T06:09:03;22.60;81.00
19180;DHT22;9722;48.754;8.868;2022-07-29T06:12:24;22.80;80.10
19180;DHT22;9722;48.754;8.868;2022-07-29T06:15:44;22.90;79.20
19180;DHT22;9722;48.754;8.868;2022-07-29T06:19:05;23.00;78.70
19180;DHT22;9722;48.754;8.868;2022-07-29T06:22:25;23.30;77.20
19180;DHT22;9722;48.754;8.868;2022-07-29T06:25:46;23.60;75.90
19180;DHT22;9722;48.754;8.868;2022-07-29T06:29:07;23.80;75.10
19180;DHT22;9722;48.754;8.868;2022-07-29T06:32:28;23.80;74.30
19180;DHT22;9722;48.754;8.868;2022-07-29T06:35:48;23.80;73.70
19180;DHT22;9722;48.754;8.868;2022-07-29T06:39:09;23.70;73.50
19180;DHT22;9722;48.754;8.868;2022-07-29T06:42:30;23.80;73.00
19180;DHT22;9722;48.754;8.868;2022-07-29T06:45:50;24.20;72.50
19180;DHT22;9722;48.754;8.868;2022-07-29T06:49:11;24.90;70.50
19180;DHT22;9722;48.754;8.868;2022-07-29T06:52:32;25.60;67.80
19180;DHT22;9722;48.754;8.868;2022-07-29T06:55:53;26.00;65.80
19180;DHT22;9722;48.754;8.868;2022-07-29T06:59:13;26.10;64.40
19180;DHT22;9722;48.754;8.868;2022-07-29T07:02:34;26.10;64.00
19180;DHT22;9722;48.754;8.868;2022-07-29T07:05:55;26.30;63.10
19180;DHT22;9722;48.754;8.868;2022-07-29T07:09:16;26.70;61.60
19180;DHT22;9722;48.754;8.868;2022-07-29T07:12:36;27.20;60.50
19180;DHT22;9722;48.754;8.868;2022-07-29T07:15:57;27.40;59.40
19180;DHT22;9722;48.754;8.868;2022-07-29T07:19:17;27.40;58.90
19180;DHT22;9722;48.754;8.868;2022-07-29T07:22:39;27.50;58.50
19180;DHT22;9722;48.754;8.868;2022-07-29T07:25:59;27.90;57.80
19180;DHT22;9722;48.754;8.868;2022-07-29T07:29:20;28.80;56.60
19180;DHT22;9722;48.754;8.868;2022-07-29T07:32:40;29.80;54.80
19180;DHT22;9722;48.754;8.868;2022-07-29T07:36:01;30.70;53.10
19180;DHT22;9722;48.754;8.868;2022-07-29T07:39:21;31.40;51.80
19180;DHT22;9722;48.754;8.868;2022-07-29T07:42:42;31.90;50.40
19180;DHT22;9722;48.754;8.868;2022-07-29T07:46:02;32.30;49.70
19180;DHT22;9722;48.754;8.868;2022-07-29T07:49:23;32.30;48.80
19180;DHT22;9722;48.754;8.868;2022-07-29T07:52:52;32.20;48.10
19180;DHT22;9722;48.754;8.868;2022-07-29T07:56:12;31.80;48.20
19180;DHT22;9722;48.754;8.868;2022-07-29T07:59:33;31.40;48.90
19180;DHT22;9722;48.754;8.868;2022-07-29T08:02:53;31.60;49.00
19180;DHT22;9722;48.754;8.868;2022-07-29T08:06:14;32.30;48.00
19180;DHT22;9722;48.754;8.868;2022-07-29T08:09:35;33.20;46.50
19180;DHT22;9722;48.754;8.868;2022-07-29T08:12:56;34.10;45.10
19180;DHT22;9722;48.754;8.868;2022-07-29T08:16:16;34.90;43.10
19180;DHT22;9722;48.754;8.868;2022-07-29T08:19:37;35.40;41.40
19180;DHT22;9722;48.754;8.868;2022-07-29T08:22:57;35.50;41.50
19180;DHT22;9722;48.754;8.868;2022-07-29T08:26:21;35.70;41.10
19180;DHT22;9722;48.754;8.868;2022-07-29T08:29:42;36.10;40.10
19180;DHT22;9722;48.754;8.868;2022-07-29T08:33:03;36.50;39.50
19180;DHT22;9722;48.754;8.868;2022-07-29T08:36:24;36.90;38.50
19180;DHT22;9722;48.754;8.868;2022-07-29T08:39:45;37.10;38.00
19180;DHT22;9722;48.754;8.868;2022-07-29T08:43:08;37.50;37.80
19180;DHT22;9722;48.754;8.868;2022-07-29T08:46:29;38.20;37.10
19180;DHT22;9722;48.754;8.868;2022-07-29T08:49:50;38.60;36.00
19180;DHT22;9722;48.754;8.868;2022-07-29T08:53:12;38.90;35.20
19180;DHT22;9722;48.754;8.868;2022-07-29T08:56:33;39.30;34.80
19180;DHT22;9722;48.754;8.868;2022-07-29T08:59:54;39.40;34.40
19180;DHT22;9722;48.754;8.868;2022-07-29T09:03:23;39.50;34.10
19180;DHT22;9722;48.754;8.868;2022-07-29T09:06:47;39.90;34.00
19180;DHT22;9722;48.754;8.868;2022-07-29T09:10:08;40.10;33.60
19180;DHT22;9722;48.754;8.868;2022-07-29T09:13:29;40.10;32.90
19180;DHT22;9722;48.754;8.868;2022-07-29T09:16:55;39.50;33.40
19180;DHT22;9722;48.754;8.868;2022-07-29T09:20:19;38.70;34.30
19180;DHT22;9722;48.754;8.868;2022-07-29T09:23:39;38.50;34.70
19180;DHT22;9722;48.754;8.868;2022-07-29T09:27:01;39.10;33.80
19180;DHT22;9722;48.754;8.868;2022-07-29T09:30:22;39.90;32.80
19180;DHT22;9722;48.754;8.868;2022-07-29T09:33:43;40.40;32.00
19180;DHT22;9722;48.754;8.868;2022-07-29T09:37:03;40.50;31.60
19180;DHT22;9722;48.754;8.868;2022-07-29T09:40:26;40.00;31.70
19180;DHT22;9722;48.754;8.868;2022-07-29T09:43:57;39.00;32.20
19180;DHT22;9722;48.754;8.868;2022-07-29T09:47:18;37.50;33.40
19180;DHT22;9722;48.754;8.868;2022-07-29T09:50:43;36.10;34.60
19180;DHT22;9722;48.754;8.868;2022-07-29T09:54:23;34.80;36.10
19180;DHT22;9722;48.754;8.868;2022-07-29T09:57:46;33.50;37.80
19180;DHT22;9722;48.754;8.868;2022-07-29T10:01:06;32.60;39.20
19180;DHT22;9722;48.754;8.868;2022-07-29T10:04:56;31.60;40.40
19180;DHT22;9722;48.754;8.868;2022-07-29T10:08:25;30.80;41.70
19180;DHT22;9722;48.754;8.868;2022-07-29T10:12:03;30.10;42.40
19180;DHT22;9722;48.754;8.868;2022-07-29T10:15:25;29.40;43.80
19180;DHT22;9722;48.754;8.868;2022-07-29T10:18:46;28.90;44.60
19180;DHT22;9722;48.754;8.868;2022-07-29T10:22:08;28.20;47.00
19180;DHT22;9722;48.754;8.868;2022-07-29T10:25:29;27.50;51.30
19180;DHT22;9722;48.754;8.868;2022-07-29T10:28:50;26.70;54.20
19180;DHT22;9722;48.754;8.868;2022-07-29T10:32:20;25.80;57.90
19180;DHT22;9722;48.754;8.868;2022-07-29T10:43:17;22.00;79.50
19180;DHT22;9722;48.754;8.868;2022-07-29T10:46:40;21.00;85.30
19180;DHT22;9722;48.754;8.868;2022-07-29T10:50:03;20.40;90.60
19180;DHT22;9722;48.754;8.868;2022-07-29T10:53:24;20.10;94.10
19180;DHT22;9722;48.754;8.868;2022-07-29T10:56:45;19.90;96.30
19180;DHT22;9722;48.754;8.868;2022-07-29T11:03:46;19.40;98.20
19180;DHT22;9722;48.754;8.868;2022-07-29T11:07:07;19.30;99.90
19180;DHT22;9722;48.754;8.868;2022-07-29T11:10:28;19.50;99.90
19180;DHT22;9722;48.754;8.868;2022-07-29T11:13:52;19.50;99.90
19180;DHT22;9722;48.754;8.868;2022-07-29T11:17:15;19.50;99.90
19180;DHT22;9722;48.754;8.868;2022-07-29T11:20:46;19.70;99.90
19180;DHT22;9722;48.754;8.868;2022-07-29T11:24:14;20.10;99.90
19180;DHT22;9722;48.754;8.868;2022-07-29T11:27:35;20.30;99.90
19180;DHT22;9722;48.754;8.868;2022-07-29T11:31:00;20.40;99.90
19180;DHT22;9722;48.754;8.868;2022-07-29T11:34:32;20.40;99.90
19180;DHT22;9722;48.754;8.868;2022-07-29T11:41:44;20.60;99.90
19180;DHT22;9722;48.754;8.868;2022-07-29T11:45:10;20.70;99.90
19180;DHT22;9722;48.754;8.868;2022-07-29T11:48:31;20.70;99.90
19180;DHT22;9722;48.754;8.868;2022-07-29T11:51:55;20.90;99.90
19180;DHT22;9722;48.754;8.868;2022-07-29T11:55:21;21.20;99.90
19180;DHT22;9722;48.754;8.868;2022-07-29T11:58:45;21.40;99.90
19180;DHT22;9722;48.754;8.868;2022-07-29T12:02:05;21.60;99.90
19180;DHT22;9722;48.754;8.868;2022-07-29T12:05:43;21.90;99.80
19180;DHT22;9722;48.754;8.868;2022-07-29T12:09:08;22.30;98.50
19180;DHT22;9722;48.754;8.868;2022-07-29T12:12:30;22.70;97.40
19180;DHT22;9722;48.754;8.868;2022-07-29T12:15:55;23.00;97.10
19180;DHT22;9722;48.754;8.868;2022-07-29T12:19:15;23.20;95.60
19180;DHT22;9722;48.754;8.868;2022-07-29T12:22:38;23.20;94.50
19180;DHT22;9722;48.754;8.868;2022-07-29T12:26:03;23.20;93.90
19180;DHT22;9722;48.754;8.868;2022-07-29T12:29:24;23.20;93.70
19180;DHT22;9722;48.754;8.868;2022-07-29T12:32:47;23.20;93.20
19180;DHT22;9722;48.754;8.868;2022-07-29T12:36:08;23.30;92.70
19180;DHT22;9722;48.754;8.868;2022-07-29T12:39:29;23.40;91.90
19180;DHT22;9722;48.754;8.868;2022-07-29T12:43:10;23.40;91.50
19180;DHT22;9722;48.754;8.868;2022-07-29T12:46:31;23.30;91.30
19180;DHT22;9722;48.754;8.868;2022-07-29T12:50:14;23.10;91.20
19180;DHT22;9722;48.754;8.868;2022-07-29T12:53:36;23.00;90.90
19180;DHT22;9722;48.754;8.868;2022-07-29T12:56:59;22.80;90.80
19180;DHT22;9722;48.754;8.868;2022-07-29T13:00:24;22.70;90.60
19180;DHT22;9722;48.754;8.868;2022-07-29T13:03:51;22.60;90.40
19180;DHT22;9722;48.754;8.868;2022-07-29T13:07:12;22.50;90.50
19180;DHT22;9722;48.754;8.868;2022-07-29T13:10:35;22.40;90.20
19180;DHT22;9722;48.754;8.868;2022-07-29T13:13:56;22.50;90.20
19180;DHT22;9722;48.754;8.868;2022-07-29T13:17:21;22.60;89.60
19180;DHT22;9722;48.754;8.868;2022-07-29T13:20:43;22.90;88.20
19180;DHT22;9722;48.754;8.868;2022-07-29T13:24:05;23.30;86.90
19180;DHT22;9722;48.754;8.868;2022-07-29T13:27:32;23.70;84.80
19180;DHT22;9722;48.754;8.868;2022-07-29T13:30:53;24.50;81.90
19180;DHT22;9722;48.754;8.868;2022-07-29T13:34:13;25.70;78.00
19180;DHT22;9722;48.754;8.868;2022-07-29T13:37:35;26.70;73.10
19180;DHT22;9722;48.754;8.868;2022-07-29T13:40:58;27.10;69.80
19180;DHT22;9722;48.754;8.868;2022-07-29T13:44:19;27.30;67.60
19180;DHT22;9722;48.754;8.868;2022-07-29T13:47:39;27.20;65.80
19180;DHT22;9722;48.754;8.868;2022-07-29T13:51:00;27.10;66.00
19180;DHT22;9722;48.754;8.868;2022-07-29T13:54:21;27.00;65.40
19180;DHT22;9722;48.754;8.868;2022-07-29T13:57:41;26.80;65.40
19180;DHT22;9722;48.754;8.868;2022-07-29T14:01:02;26.70;65.60
19180;DHT22;9722;48.754;8.868;2022-07-29T14:04:23;26.60;66.00
19180;DHT22;9722;48.754;8.868;2022-07-29T14:07:43;26.70;66.10
19180;DHT22;9722;48.754;8.868;2022-07-29T14:11:04;26.70;65.60
19180;DHT22;9722;48.754;8.868;2022-07-29T14:14:24;26.70;66.00
19180;DHT22;9722;48.754;8.868;2022-07-29T14:17:45;26.80;65.50
19180;DHT22;9722;48.754;8.868;2022-07-29T14:21:05;26.80;65.20
19180;DHT22;9722;48.754;8.868;2022-07-29T14:24:26;26.80;65.20
19180;DHT22;9722;48.754;8.868;2022-07-29T14:27:46;26.90;64.80
19180;DHT22;9722;48.754;8.868;2022-07-29T14:31:07;27.00;64.70
19180;DHT22;9722;48.754;8.868;2022-07-29T14:34:27;27.00;65.00
19180;DHT22;9722;48.754;8.868;2022-07-29T14:37:48;27.00;64.70
19180;DHT22;9722;48.754;8.868;2022-07-29T14:41:09;27.00;64.60
19180;DHT22;9722;48.754;8.868;2022-07-29T14:44:29;27.10;64.70
19180;DHT22;9722;48.754;8.868;2022-07-29T14:47:51;27.20;64.60
19180;DHT22;9722;48.754;8.868;2022-07-29T14:51:11;27.20;64.30
19180;DHT22;9722;48.754;8.868;2022-07-29T14:54:32;27.30;63.50
19180;DHT22;9722;48.754;8.868;2022-07-29T14:57:52;27.20;63.90
19180;DHT22;9722;48.754;8.868;2022-07-29T15:01:14;27.20;64.10
19180;DHT22;9722;48.754;8.868;2022-07-29T15:04:34;27.20;63.80
19180;DHT22;9722;48.754;8.868;2022-07-29T15:07:55;27.10;63.40
19180;DHT22;9722;48.754;8.868;2022-07-29T15:11:15;27.10;63.00
19180;DHT22;9722;48.754;8.868;2022-07-29T15:14:36;27.00;62.90
19180;DHT22;9722;48.754;8.868;2022-07-29T15:17:56;26.90;63.00
19180;DHT22;9722;48.754;8.868;2022-07-29T15:21:17;26.90;63.20
19180;DHT22;9722;48.754;8.868;2022-07-29T15:24:37;26.90;63.70
19180;DHT22;9722;48.754;8.868;2022-07-29T15:27:58;27.00;64.10
19180;DHT22;9722;48.754;8.868;2022-07-29T15:31:22;27.20;63.10
19180;DHT22;9722;48.754;8.868;2022-07-29T15:34:42;27.20;60.80
19180;DHT22;9722;48.754;8.868;2022-07-29T15:38:04;27.30;59.50
19180;DHT22;9722;48.754;8.868;2022-07-29T15:41:24;27.30;58.30
19180;DHT22;9722;48.754;8.868;2022-07-29T15:44:44;27.40;57.60
19180;DHT22;9722;48.754;8.868;2022-07-29T15:48:06;27.40;57.60
19180;DHT22;9722;48.754;8.868;2022-07-29T15:51:27;27.40;58.30
19180;DHT22;9722;48.754;8.868;2022-07-29T15:54:47;27.30;59.10
19180;DHT22;9722;48.754;8.868;2022-07-29T15:58:08;27.20;59.60
19180;DHT22;9722;48.754;8.868;2022-07-29T16:01:28;27.20;59.90
19180;DHT22;9722;48.754;8.868;2022-07-29T16:04:49;27.00;60.10
19180;DHT22;9722;48.754;8.868;2022-07-29T16:08:10;26.90;60.20
19180;DHT22;9722;48.754;8.868;2022-07-29T16:11:30;26.70;60.40
19180;DHT22;9722;48.754;8.868;2022-07-29T16:14:51;26.70;61.10
19180;DHT22;9722;48.754;8.868;2022-07-29T16:18:11;26.80;61.20
19180;DHT22;9722;48.754;8.868;2022-07-29T16:21:33;26.80;59.20
19180;DHT22;9722;48.754;8.868;2022-07-29T16:24:54;26.90;55.90
19180;DHT22;9722;48.754;8.868;2022-07-29T16:28:14;27.00;54.80
19180;DHT22;9722;48.754;8.868;2022-07-29T16:31:36;27.10;54.00
19180;DHT22;9722;48.754;8.868;2022-07-29T16:34:56;27.20;56.20
19180;DHT22;9722;48.754;8.868;2022-07-29T16:38:17;27.20;58.60
19180;DHT22;9722;48.754;8.868;2022-07-29T16:41:38;27.20;59.60
19180;DHT22;9722;48.754;8.868;2022-07-29T16:44:59;27.10;60.20
19180;DHT22;9722;48.754;8.868;2022-07-29T16:48:19;27.10;60.30
19180;DHT22;9722;48.754;8.868;2022-07-29T16:51:40;27.00;57.60
19180;DHT22;9722;48.754;8.868;2022-07-29T16:55:00;27.10;54.70
19180;DHT22;9722;48.754;8.868;2022-07-29T16:58:21;27.10;53.40
19180;DHT22;9722;48.754;8.868;2022-07-29T17:01:41;27.20;52.20
19180;DHT22;9722;48.754;8.868;2022-07-29T17:05:02;27.40;51.70
19180;DHT22;9722;48.754;8.868;2022-07-29T17:08:23;27.50;51.00
19180;DHT22;9722;48.754;8.868;2022-07-29T17:11:43;27.60;50.70
19180;DHT22;9722;48.754;8.868;2022-07-29T17:15:05;27.60;49.90
19180;DHT22;9722;48.754;8.868;2022-07-29T17:18:26;27.60;49.50
19180;DHT22;9722;48.754;8.868;2022-07-29T17:21:47;27.60;48.90
19180;DHT22;9722;48.754;8.868;2022-07-29T17:25:08;27.50;48.90
19180;DHT22;9722;48.754;8.868;2022-07-29T17:28:29;27.40;48.60
19180;DHT22;9722;48.754;8.868;2022-07-29T17:31:50;27.30;48.80
19180;DHT22;9722;48.754;8.868;2022-07-29T17:35:10;27.20;48.90
19180;DHT22;9722;48.754;8.868;2022-07-29T17:38:50;27.10;48.60
19180;DHT22;9722;48.754;8.868;2022-07-29T17:42:13;27.10;48.50
19180;DHT22;9722;48.754;8.868;2022-07-29T17:45:33;27.00;47.80
19180;DHT22;9722;48.754;8.868;2022-07-29T17:48:55;26.90;48.00
19180;DHT22;9722;48.754;8.868;2022-07-29T17:52:16;27.00;47.80
19180;DHT22;9722;48.754;8.868;2022-07-29T17:55:37;26.90;47.60
19180;DHT22;9722;48.754;8.868;2022-07-29T17:58:58;26.80;47.40
19180;DHT22;9722;48.754;8.868;2022-07-29T18:02:20;26.70;47.90
19180;DHT22;9722;48.754;8.868;2022-07-29T18:05:41;26.70;47.20
19180;DHT22;9722;48.754;8.868;2022-07-29T18:09:02;26.60;47.40
19180;DHT22;9722;48.754;8.868;2022-07-29T18:12:23;26.40;47.20
19180;DHT22;9722;48.754;8.868;2022-07-29T18:15:44;26.30;47.10
19180;DHT22;9722;48.754;8.868;2022-07-29T18:19:05;26.20;47.60
19180;DHT22;9722;48.754;8.868;2022-07-29T18:22:26;26.00;47.90
19180;DHT22;9722;48.754;8.868;2022-07-29T18:25:46;25.90;48.70
19180;DHT22;9722;48.754;8.868;2022-07-29T18:29:07;25.70;48.80
19180;DHT22;9722;48.754;8.868;2022-07-29T18:32:27;25.60;48.90
19180;DHT22;9722;48.754;8.868;2022-07-29T18:35:50;25.40;48.90
19180;DHT22;9722;48.754;8.868;2022-07-29T18:39:11;25.30;49.20
19180;DHT22;9722;48.754;8.868;2022-07-29T18:42:31;25.10;49.30
19180;DHT22;9722;48.754;8.868;2022-07-29T18:45:52;24.90;49.30
19180;DHT22;9722;48.754;8.868;2022-07-29T18:49:12;24.80;49.70
19180;DHT22;9722;48.754;8.868;2022-07-29T18:52:33;24.60;49.80
19180;DHT22;9722;48.754;8.868;2022-07-29T18:55:54;24.40;49.70
19180;DHT22;9722;48.754;8.868;2022-07-29T18:59:16;24.20;49.90
19180;DHT22;9722;48.754;8.868;2022-07-29T19:02:39;24.00;50.20
19180;DHT22;9722;48.754;8.868;2022-07-29T19:05:59;23.80;50.50
19180;DHT22;9722;48.754;8.868;2022-07-29T19:09:20;23.60;50.90
19180;DHT22;9722;48.754;8.868;2022-07-29T19:12:40;23.40;51.20
19180;DHT22;9722;48.754;8.868;2022-07-29T19:16:01;23.30;51.20
19180;DHT22;9722;48.754;8.868;2022-07-29T19:19:22;23.10;51.20
19180;DHT22;9722;48.754;8.868;2022-07-29T19:22:42;22.90;51.50
19180;DHT22;9722;48.754;8.868;2022-07-29T19:26:03;22.80;51.80
19180;DHT22;9722;48.754;8.868;2022-07-29T19:29:23;22.70;53.10
19180;DHT22;9722;48.754;8.868;2022-07-29T19:32:45;22.50;53.00
19180;DHT22;9722;48.754;8.868;2022-07-29T19:36:06;22.30;53.60
19180;DHT22;9722;48.754;8.868;2022-07-29T19:39:26;22.10;54.90
19180;DHT22;9722;48.754;8.868;2022-07-29T19:42:47;21.80;55.80
19180;DHT22;9722;48.754;8.868;2022-07-29T19:46:10;21.60;56.80
19180;DHT22;9722;48.754;8.868;2022-07-29T19:49:30;21.30;57.80
19180;DHT22;9722;48.754;8.868;2022-07-29T19:52:56;21.10;58.70
19180;DHT22;9722;48.754;8.868;2022-07-29T19:56:17;20.90;59.50
19180;DHT22;9722;48.754;8.868;2022-07-29T19:59:37;20.80;60.00
19180;DHT22;9722;48.754;8.868;2022-07-29T20:02:58;20.70;60.50
19180;DHT22;9722;48.754;8.868;2022-07-29T20:06:18;20.60;61.30
19180;DHT22;9722;48.754;8.868;2022-07-29T20:09:39;20.50;62.20
19180;DHT22;9722;48.754;8.868;2022-07-29T20:13:00;20.40;63.30
19180;DHT22;9722;48.754;8.868;2022-07-29T20:16:20;20.30;63.80
19180;DHT22;9722;48.754;8.868;2022-07-29T20:19:41;20.20;64.30
19180;DHT22;9722;48.754;8.868;2022-07-29T20:23:02;20.10;64.30
19180;DHT22;9722;48.754;8.868;2022-07-29T20:26:23;20.10;64.40
19180;DHT22;9722;48.754;8.868;2022-07-29T20:29:43;20.00;64.30
19180;DHT22;9722;48.754;8.868;2022-07-29T20:33:04;20.00;64.40
19180;DHT22;9722;48.754;8.868;2022-07-29T20:36:25;20.00;64.00
19180;DHT22;9722;48.754;8.868;2022-07-29T20:39:46;20.00;64.00
19180;DHT22;9722;48.754;8.868;2022-07-29T20:43:07;20.00;63.10
19180;DHT22;9722;48.754;8.868;2022-07-29T20:46:28;19.90;62.70
19180;DHT22;9722;48.754;8.868;2022-07-29T20:49:49;19.90;61.90
19180;DHT22;9722;48.754;8.868;2022-07-29T20:53:10;20.00;61.30
19180;DHT22;9722;48.754;8.868;2022-07-29T20:56:30;20.00;60.10
19180;DHT22;9722;48.754;8.868;2022-07-29T20:59:51;20.10;59.30
19180;DHT22;9722;48.754;8.868;2022-07-29T21:03:11;20.20;58.70
19180;DHT22;9722;48.754;8.868;2022-07-29T21:06:32;20.30;58.30
19180;DHT22;9722;48.754;8.868;2022-07-29T21:09:53;20.30;57.90
19180;DHT22;9722;48.754;8.868;2022-07-29T21:13:14;20.40;57.60
19180;DHT22;9722;48.754;8.868;2022-07-29T21:16:35;20.50;57.40
19180;DHT22;9722;48.754;8.868;2022-07-29T21:19:57;20.50;57.00
19180;DHT22;9722;48.754;8.868;2022-07-29T21:23:18;20.60;56.70
19180;DHT22;9722;48.754;8.868;2022-07-29T21:26:38;20.60;56.50
19180;DHT22;9722;48.754;8.868;2022-07-29T21:29:59;20.70;56.40
19180;DHT22;9722;48.754;8.868;2022-07-29T21:33:19;20.70;56.40
19180;DHT22;9722;48.754;8.868;2022-07-29T21:36:40;20.70;56.40
19180;DHT22;9722;48.754;8.868;2022-07-29T21:40:00;20.70;56.40
19180;DHT22;9722;48.754;8.868;2022-07-29T21:43:22;20.70;56.40
19180;DHT22;9722;48.754;8.868;2022-07-29T21:46:42;20.60;56.30
19180;DHT22;9722;48.754;8.868;2022-07-29T21:50:03;20.60;56.30
19180;DHT22;9722;48.754;8.868;2022-07-29T21:53:24;20.60;56.70
19180;DHT22;9722;48.754;8.868;2022-07-29T21:56:44;20.40;56.90